KRRL/RRL METAR and TAF weather

Enter ICAO airport designator
Station Type Date Time Source
KRRL METAR 2018/12/11 20:35 UTC NOAA

KRRL 112035Z AUTO 10005KT 7SM OVC008 M04/M06 A2997 RMK AO2 T10421060 TSNO


Station Type Date Time Source
KRRL Decoded METAR 2018/12/11 20:35 UTC NOAA

Merrill, Merrill Municipal Airport, WI, United States (KRRL) 45-11N 089-42W
Dec 11, 2018 - 03:35 PM EST / 2018.12.11 2035 UTC
Wind: from the E (100 degrees) at 6 MPH (5 KT):0
Visibility: 7 mile(s):0
Sky conditions: overcast
Temperature: 24.4 F (-4.2 C)
Windchill: 17 F (-8 C):1
Dew Point: 21.2 F (-6.0 C)
Relative Humidity: 87%
Pressure (altimeter): 29.97 in. Hg (1014 hPa)
ob: KRRL 112035Z AUTO 10005KT 7SM OVC008 M04/M06 A2997 RMK AO2 T10421060 TSNO
cycle: 20

Station Type Date Time Source
KRRL TAF UTC NOAA

Error!


Example: see airport list